Terminal Aerodrome Forecast
Issued by NWS

Home | Current Version | Previous Version | Text Only | Print | Product List | Glossary On
Versions: 1 2 3 4 5 6 7 8 9 10 11 12 13 14 15 16 17 18 19 20 21 22 23 24 25 26 27 28 29 30 31 32 33 34 35 36 37 38 39 40 41 42 43 44 45 46 47 48 49 50
000
FTUS44 KHGX 272320
TAFIAH
TAF
KIAH 272320Z 2800/0106 05008KT P6SM BKN040 BKN090
     FM280800 06010KT P6SM SCT015 BKN040 OVC070
     FM281600 07012KT P6SM SCT015 BKN045
     FM282100 09012KT P6SM SCT035 BKN070
     FM010200 10011KT P6SM BKN035 BKN070
     FM010500 11008KT P6SM FEW008 OVC025=

USA.gov is the U.S. government's official web portal to all federal, state and local government web resources and services.